createdAt,value
2018-09-24T00:00:31.165Z,94.3
2018-09-24T00:05:31.830Z,94.1
2018-09-24T00:10:34.227Z,92.9
2018-09-24T00:15:31.821Z,93.6
2018-09-24T00:20:32.082Z,92.9
2018-09-24T00:25:32.903Z,91.9
2018-09-24T00:30:32.112Z,92.6
2018-09-24T00:35:32.744Z,92.8
2018-09-24T00:40:31.405Z,92
2018-09-24T00:45:31.737Z,92.9
2018-09-24T00:50:31.134Z,92.9
2018-09-24T00:55:31.426Z,93.8
2018-09-24T01:00:31.755Z,94
2018-09-24T01:05:31.637Z,93
2018-09-24T01:10:31.554Z,93.4
2018-09-24T01:15:31.334Z,93.5
2018-09-24T01:20:32.967Z,91.9
2018-09-24T01:25:31.415Z,92.9
2018-09-24T01:30:31.394Z,92.7
2018-09-24T01:35:31.386Z,93.2
2018-09-24T01:40:31.399Z,91.8
2018-09-24T01:45:31.968Z,93.4
2018-09-24T01:50:31.503Z,92.8
2018-09-24T01:55:31.560Z,91.3
2018-09-24T02:00:31.816Z,92.1
2018-09-24T02:05:30.978Z,92.6
2018-09-24T02:10:32.591Z,92.5
2018-09-24T02:15:31.186Z,93.3
2018-09-24T02:20:31.276Z,92.9
2018-09-24T02:25:31.213Z,93.1
2018-09-24T02:30:32.286Z,93.4
2018-09-24T02:35:31.549Z,93
2018-09-24T02:40:37.026Z,93.4
2018-09-24T02:45:31.155Z,93.1
2018-09-24T02:50:30.938Z,93.1
2018-09-24T02:55:31.308Z,93.1
2018-09-24T03:00:31.146Z,92.7
2018-09-24T03:05:31.878Z,92.2
2018-09-24T03:10:30.975Z,91.9
2018-09-24T03:15:31.076Z,91.6
2018-09-24T03:20:32.087Z,91.1
2018-09-24T03:25:31.064Z,91.2
2018-09-24T03:30:30.893Z,91.5
2018-09-24T03:35:30.859Z,90.4
2018-09-24T03:40:31.201Z,90.9
2018-09-24T03:45:30.940Z,90.6
2018-09-24T03:50:30.824Z,90.3
2018-09-24T03:55:31.256Z,88.1
2018-09-24T04:00:31.676Z,88
2018-09-24T04:05:31.118Z,87.3
2018-09-24T04:10:31.265Z,89.1
2018-09-24T04:15:30.904Z,90.1
2018-09-24T04:20:30.824Z,89.9
2018-09-24T04:25:31.182Z,89.9
2018-09-24T04:30:31.862Z,90.3
2018-09-24T04:35:31.185Z,91.3
2018-09-24T04:40:31.884Z,90
2018-09-24T04:45:31.272Z,88.9
2018-09-24T04:50:31.141Z,89.7
2018-09-24T04:55:59.189Z,91.7
2018-09-24T05:10:54.932Z,92.7
2018-09-24T05:16:04.754Z,93.2
2018-09-24T05:20:32.017Z,92.3
2018-09-24T05:25:32.339Z,92.9
2018-09-24T05:30:31.965Z,93.1
2018-09-24T05:35:32.446Z,93.5
2018-09-24T05:40:33.464Z,93.1
2018-09-24T05:45:32.585Z,93
2018-09-24T05:50:32.385Z,93.3
2018-09-24T05:55:32.722Z,91.8
2018-09-24T06:00:33.640Z,92.7
2018-09-24T06:05:32.820Z,92.7
2018-09-24T06:10:32.972Z,88.8
2018-09-24T06:15:32.377Z,84.4
2018-09-24T06:20:31.968Z,85.4
2018-09-24T06:25:32.383Z,88
2018-09-24T06:30:32.628Z,90
2018-09-24T06:35:32.500Z,91.3
2018-09-24T06:40:32.287Z,90.9
2018-09-24T06:45:32.489Z,91.3
2018-09-24T06:50:32.237Z,90.2
2018-09-24T06:55:32.733Z,89.8
2018-09-24T07:00:32.360Z,89.6
2018-09-24T07:05:32.021Z,87.4
2018-09-24T07:10:32.225Z,85.2
2018-09-24T07:15:32.972Z,88.5
2018-09-24T07:20:32.069Z,87.2
2018-09-24T07:25:32.190Z,86.1
2018-09-24T07:30:32.345Z,84.8
2018-09-24T07:35:31.760Z,84.4
2018-09-24T07:40:31.954Z,82.1
2018-09-24T07:45:31.923Z,84.9
2018-09-24T07:50:32.225Z,88.9
2018-09-24T07:55:31.806Z,89.6
2018-09-24T08:00:32.077Z,86.9
2018-09-24T08:05:32.252Z,87.5
2018-09-24T08:10:32.278Z,86.8
2018-09-24T08:15:32.104Z,84
2018-09-24T08:20:32.436Z,86.7
2018-09-24T08:25:32.018Z,86.3
2018-09-24T08:30:31.755Z,85.8
2018-09-24T08:35:32.053Z,86
2018-09-24T08:40:31.766Z,82.2
2018-09-24T08:45:31.897Z,81.3
2018-09-24T08:50:31.852Z,79.5
2018-09-24T08:55:32.222Z,79.4
2018-09-24T09:00:31.940Z,76.8
2018-09-24T09:05:32.080Z,77.1
2018-09-24T09:10:31.848Z,74
2018-09-24T09:15:32.038Z,74.5
2018-09-24T09:20:31.713Z,73.3
2018-09-24T09:25:31.724Z,69.7
2018-09-24T09:30:32.039Z,68.9
2018-09-24T09:35:31.699Z,65.7
2018-09-24T09:40:31.907Z,70.6
2018-09-24T09:45:31.741Z,69.5
2018-09-24T09:50:31.665Z,70.9
2018-09-24T09:55:31.710Z,73.6
2018-09-24T10:00:32.057Z,72.9
2018-09-24T10:05:31.694Z,72.5
2018-09-24T10:10:31.918Z,70.6
2018-09-24T10:15:31.524Z,66.5
2018-09-24T10:20:31.914Z,65.1
2018-09-24T10:25:31.608Z,57.4
2018-09-24T10:30:32.034Z,56.3
2018-09-24T10:35:31.672Z,54.2
2018-09-24T10:40:31.910Z,54.4
2018-09-24T10:45:31.792Z,56.4
2018-09-24T10:50:31.702Z,57.2
2018-09-24T10:55:31.744Z,57.6
2018-09-24T11:00:31.826Z,59.3
2018-09-24T11:05:32.917Z,59.1
2018-09-24T11:10:31.697Z,59
2018-09-24T11:15:33.954Z,57.2
2018-09-24T11:20:32.104Z,58.7
2018-09-24T11:25:33.027Z,56.8
2018-09-24T11:30:32.398Z,58.2
2018-09-24T11:35:33.021Z,56
2018-09-24T11:40:32.462Z,57.1
2018-09-24T11:45:32.538Z,54.2
2018-09-24T11:50:32.235Z,52.4
2018-09-24T11:55:31.825Z,52.3
2018-09-24T12:00:31.426Z,46.6
2018-09-24T12:05:32.084Z,50.4
2018-09-24T12:10:32.050Z,47.5
2018-09-24T12:15:31.732Z,47.2
2018-09-24T12:20:31.537Z,47.9
2018-09-24T12:25:31.480Z,50
2018-09-24T12:30:31.438Z,49.1
2018-09-24T12:35:31.317Z,43.6
2018-09-24T12:40:31.339Z,43.7
2018-09-24T12:45:31.569Z,43.6
2018-09-24T12:50:31.237Z,44.3
2018-09-24T12:55:31.573Z,41.8
2018-09-24T13:00:31.341Z,43.3
2018-09-24T13:05:31.488Z,44.5
2018-09-24T13:10:32.213Z,44.5
2018-09-24T13:15:31.684Z,45.5
2018-09-24T13:20:31.232Z,46
2018-09-24T13:25:31.713Z,47.8
2018-09-24T13:30:31.452Z,49.1
2018-09-24T13:35:31.694Z,47.5
2018-09-24T13:40:31.550Z,47.3
2018-09-24T13:45:31.230Z,47
2018-09-24T13:50:31.300Z,43.9
2018-09-24T13:55:31.560Z,44.7
2018-09-24T14:00:31.150Z,45.4
2018-09-24T14:05:31.174Z,47.7
2018-09-24T14:10:31.159Z,46.3
2018-09-24T14:15:31.180Z,50.1
2018-09-24T14:20:31.106Z,51.3
2018-09-24T14:25:31.489Z,52.2
2018-09-24T14:30:31.112Z,52.2
2018-09-24T14:35:31.413Z,53.7
2018-09-24T14:40:31.111Z,53.8
2018-09-24T14:45:31.455Z,51.5
2018-09-24T14:50:31.561Z,50.2
2018-09-24T14:55:31.326Z,51.7
2018-09-24T15:00:31.318Z,49.5
2018-09-24T15:05:31.416Z,48.2
2018-09-24T15:10:31.045Z,46.4
2018-09-24T15:15:31.083Z,44
2018-09-24T15:20:31.078Z,45.2
2018-09-24T15:25:31.030Z,47.2
2018-09-24T15:30:31.370Z,49.6
2018-09-24T15:35:31.488Z,52.2
2018-09-24T15:40:31.031Z,47.7
2018-09-24T15:45:31.263Z,47.4
2018-09-24T15:50:31.179Z,48.5
2018-09-24T15:55:31.421Z,48.5
2018-09-24T16:00:31.103Z,49.5
2018-09-24T16:05:30.959Z,52.1
2018-09-24T16:10:32.026Z,52.5
2018-09-24T16:15:31.062Z,46.9
2018-09-24T16:20:31.042Z,49.5
2018-09-24T16:25:30.918Z,51.7
2018-09-24T16:30:31.396Z,53.9
2018-09-24T16:35:31.347Z,55.8
2018-09-24T16:40:30.944Z,57.3
2018-09-24T16:45:31.401Z,56.2
2018-09-24T16:50:30.992Z,56.1
2018-09-24T16:55:31.317Z,57.4
2018-09-24T17:00:31.133Z,57.6
2018-09-24T17:05:30.998Z,57.7
2018-09-24T17:10:30.922Z,57.6
2018-09-24T17:15:31.930Z,58.5
2018-09-24T17:20:31.580Z,57.7
2018-09-24T17:25:31.383Z,57.9
2018-09-24T17:30:31.773Z,59.3
2018-09-24T17:35:30.890Z,59.1
2018-09-24T17:40:31.113Z,59.3
2018-09-24T17:45:31.108Z,60.2
2018-09-24T17:50:31.643Z,61.8
2018-09-24T17:55:31.595Z,61.4
2018-09-24T18:00:30.986Z,61.4
2018-09-24T18:05:31.073Z,60.9
2018-09-24T18:10:31.045Z,61.7
2018-09-24T18:15:30.907Z,63.4
2018-09-24T18:20:31.400Z,61.3
2018-09-24T18:25:30.926Z,61.5
2018-09-24T18:30:31.374Z,63.5
2018-09-24T18:35:31.032Z,63.3
2018-09-24T18:40:47.058Z,65.2
2018-09-24T18:53:55.835Z,68.7
2018-09-24T19:10:52.308Z,72.8
2018-09-24T19:15:33.608Z,74.7
2018-09-24T19:20:33.163Z,74.6
2018-09-24T19:25:33.142Z,74.5
2018-09-24T19:30:33.060Z,75
2018-09-24T19:35:33.354Z,75.7
2018-09-24T19:40:33.009Z,76.9
2018-09-24T19:45:33.380Z,77.1
2018-09-24T19:50:33.515Z,81.2
2018-09-24T19:55:33.850Z,80.5
2018-09-24T20:00:34.020Z,81.1
2018-09-24T20:05:33.002Z,79.4
2018-09-24T20:10:32.981Z,79.6
2018-09-24T20:15:33.537Z,79.7
2018-09-24T20:20:33.456Z,80.1
2018-09-24T20:25:32.994Z,80.6
2018-09-24T20:30:34.110Z,77.2
2018-09-24T20:35:33.186Z,77.7
2018-09-24T20:40:33.340Z,77.4
2018-09-24T20:45:32.912Z,77.2
2018-09-24T20:50:33.522Z,77.7
2018-09-24T20:55:33.309Z,77.9
2018-09-24T21:00:33.605Z,76.2
2018-09-24T21:05:33.731Z,78.1
2018-09-24T21:10:33.126Z,74
2018-09-24T21:15:33.136Z,69.4
2018-09-24T21:20:32.927Z,67.5
2018-09-24T21:25:33.441Z,71.6
2018-09-24T21:30:33.059Z,74.5
2018-09-24T21:35:34.651Z,75.3
2018-09-24T21:40:32.897Z,76.3
2018-09-24T21:45:33.313Z,77.1
2018-09-24T21:50:32.897Z,78.8
2018-09-24T21:55:33.086Z,78.8
2018-09-24T22:00:33.283Z,78.6
2018-09-24T22:05:33.195Z,80.2
2018-09-24T22:10:32.946Z,79.3
2018-09-24T22:15:33.268Z,80.1
2018-09-24T22:20:33.198Z,79.5
2018-09-24T22:25:33.235Z,80.6
2018-09-24T22:30:33.092Z,82.2
2018-09-24T22:35:32.996Z,81.6
2018-09-24T22:40:33.021Z,81
2018-09-24T22:45:32.947Z,81.3
2018-09-24T22:50:32.948Z,82.5
2018-09-24T22:55:32.984Z,82
2018-09-24T23:00:32.970Z,82.5
2018-09-24T23:05:33.051Z,84.1
2018-09-24T23:10:33.074Z,82.6
2018-09-24T23:15:33.085Z,85.1
2018-09-24T23:20:32.708Z,84.7
2018-09-24T23:25:33.299Z,84.3
2018-09-24T23:30:33.914Z,83.9
2018-09-24T23:35:34.966Z,85.5
2018-09-24T23:40:32.611Z,84.4
2018-09-24T23:45:32.778Z,84
2018-09-24T23:50:32.814Z,84.7
2018-09-24T23:55:33.077Z,85.5
